createdAt,value
2018-07-05T00:02:18.871Z,70.10
2018-07-05T00:04:58.859Z,70.10
2018-07-05T00:07:38.799Z,70.20
2018-07-05T00:10:18.501Z,70.50
2018-07-05T00:12:59.024Z,70.70
2018-07-05T00:15:41.808Z,71.10
2018-07-05T00:21:11.807Z,71.60
2018-07-05T00:23:51.650Z,71.60
2018-07-05T00:26:31.406Z,72.30
2018-07-05T00:29:11.233Z,72.40
2018-07-05T00:31:51.284Z,72.30
2018-07-05T00:34:31.795Z,72.40
2018-07-05T00:37:11.966Z,72.30
2018-07-05T00:40:05.465Z,72.60
2018-07-05T00:42:49.338Z,72.40
2018-07-05T00:45:29.741Z,72.50
2018-07-05T00:48:12.389Z,72.40
2018-07-05T00:50:53.149Z,71.90
2018-07-05T00:53:33.128Z,71.50
2018-07-05T00:56:13.567Z,71.00
2018-07-05T00:58:53.913Z,70.90
2018-07-05T01:01:34.334Z,71.00
2018-07-05T01:04:15.314Z,71.30
2018-07-05T01:06:56.272Z,71.30
2018-07-05T01:09:35.941Z,71.00
2018-07-05T01:12:16.085Z,71.20
2018-07-05T01:14:55.759Z,70.90
2018-07-05T01:17:35.596Z,71.20
2018-07-05T01:20:16.294Z,71.40
2018-07-05T01:22:55.949Z,71.20
2018-07-05T01:25:36.394Z,71.00
2018-07-05T01:28:20.128Z,71.50
2018-07-05T01:31:00.182Z,71.60
2018-07-05T01:33:40.302Z,71.40
2018-07-05T01:36:21.133Z,71.40
2018-07-05T01:39:04.950Z,71.40
2018-07-05T01:41:46.859Z,71.20
2018-07-05T01:44:27.953Z,71.50
2018-07-05T01:47:08.902Z,71.30
2018-07-05T01:49:50.080Z,71.90
2018-07-05T01:52:29.804Z,71.90
2018-07-05T01:55:09.850Z,71.20
2018-07-05T01:57:51.539Z,71.40
2018-07-05T02:00:31.875Z,71.80
2018-07-05T02:03:11.865Z,72.20
2018-07-05T02:05:52.042Z,71.70
2018-07-05T02:08:34.138Z,71.90
2018-07-05T02:11:15.576Z,72.40
2018-07-05T02:13:56.335Z,72.50
2018-07-05T02:16:36.257Z,72.70
2018-07-05T02:19:15.971Z,73.00
2018-07-05T02:21:57.191Z,73.40
2018-07-05T02:24:38.574Z,73.70
2018-07-05T02:27:18.244Z,73.80
2018-07-05T02:29:58.060Z,73.60
2018-07-05T02:32:37.839Z,73.40
2018-07-05T02:35:17.846Z,73.50
2018-07-05T02:38:03.207Z,73.40
2018-07-05T02:40:42.993Z,73.40
2018-07-05T02:43:22.718Z,73.90
2018-07-05T02:46:02.399Z,74.60
2018-07-05T02:48:42.061Z,75.10
2018-07-05T02:51:22.064Z,75.00
2018-07-05T02:54:01.702Z,75.30
2018-07-05T02:56:41.167Z,75.50
2018-07-05T02:59:20.889Z,75.40
2018-07-05T03:02:00.747Z,75.90
2018-07-05T03:04:41.740Z,76.00
2018-07-05T03:07:21.482Z,75.90
2018-07-05T03:10:01.186Z,75.90
2018-07-05T03:12:40.953Z,76.30
2018-07-05T03:15:20.713Z,76.30
2018-07-05T03:18:00.344Z,76.00
2018-07-05T03:20:40.062Z,76.00
2018-07-05T03:23:20.066Z,76.30
2018-07-05T03:26:00.049Z,76.20
2018-07-05T03:28:40.920Z,76.40
2018-07-05T03:31:20.460Z,76.80
2018-07-05T03:34:00.199Z,77.20
2018-07-05T03:36:40.008Z,77.00
2018-07-05T03:39:19.846Z,76.90
2018-07-05T03:41:59.563Z,76.90
2018-07-05T03:44:39.265Z,77.00
2018-07-05T03:47:18.896Z,76.70
2018-07-05T03:49:58.670Z,76.40
2018-07-05T03:52:38.624Z,76.70
2018-07-05T03:55:18.379Z,76.70
2018-07-05T03:57:58.310Z,76.70
2018-07-05T04:00:38.100Z,76.50
2018-07-05T04:03:18.087Z,76.20
2018-07-05T04:05:58.173Z,76.00
2018-07-05T04:08:38.121Z,76.00
2018-07-05T04:11:17.898Z,76.30
2018-07-05T04:13:57.764Z,76.10
2018-07-05T04:16:37.647Z,76.20
2018-07-05T04:19:17.426Z,75.90
2018-07-05T04:21:57.320Z,75.40
2018-07-05T04:24:36.920Z,75.60
2018-07-05T04:27:16.574Z,75.60
2018-07-05T04:29:56.084Z,74.70
2018-07-05T04:32:36.027Z,74.00
2018-07-05T04:35:17.191Z,74.50
2018-07-05T04:38:10.253Z,74.40
2018-07-05T04:40:50.011Z,74.00
2018-07-05T04:43:29.822Z,74.00
2018-07-05T04:46:09.710Z,74.00
2018-07-05T04:48:49.449Z,73.90
2018-07-05T04:51:29.586Z,73.70
2018-07-05T04:54:09.480Z,73.20
2018-07-05T04:56:49.358Z,72.70
2018-07-05T04:59:29.109Z,72.10
2018-07-05T05:02:09.064Z,71.30
2018-07-05T05:04:48.954Z,70.60
2018-07-05T05:07:29.194Z,70.20
2018-07-05T05:10:10.469Z,70.00
2018-07-05T05:12:50.618Z,70.30
2018-07-05T05:15:30.668Z,71.00
2018-07-05T05:18:11.710Z,70.70
2018-07-05T05:20:51.597Z,70.30
2018-07-05T05:23:31.549Z,69.90
2018-07-05T05:26:11.360Z,69.50
2018-07-05T05:28:51.022Z,69.30
2018-07-05T05:31:30.653Z,68.90
2018-07-05T05:34:10.527Z,69.00
2018-07-05T05:36:50.504Z,68.60
2018-07-05T05:39:30.346Z,66.70
2018-07-05T05:42:10.226Z,66.80
2018-07-05T05:44:50.245Z,66.30
2018-07-05T05:47:30.116Z,66.30
2018-07-05T05:50:09.874Z,65.80
2018-07-05T05:52:49.534Z,65.50
2018-07-05T05:55:30.140Z,65.40
2018-07-05T05:58:09.939Z,64.90
2018-07-05T06:00:49.880Z,65.30
2018-07-05T06:03:30.165Z,64.60
2018-07-05T06:06:10.631Z,64.80
2018-07-05T06:08:50.439Z,65.10
2018-07-05T06:11:30.229Z,64.60
2018-07-05T06:14:10.172Z,64.00
2018-07-05T06:16:50.102Z,63.50
2018-07-05T06:19:30.489Z,63.50
2018-07-05T06:22:10.413Z,63.80
2018-07-05T06:24:51.848Z,62.50
2018-07-05T06:27:31.822Z,62.50
2018-07-05T06:30:11.832Z,61.50
2018-07-05T06:32:51.575Z,60.50
2018-07-05T06:35:31.831Z,60.80
2018-07-05T06:38:12.188Z,61.00
2018-07-05T06:40:52.102Z,60.10
2018-07-05T06:43:31.991Z,60.00
2018-07-05T06:46:12.040Z,59.80
2018-07-05T06:48:51.893Z,59.60
2018-07-05T06:51:32.120Z,59.70
2018-07-05T06:54:12.450Z,59.10
2018-07-05T06:56:52.503Z,59.30
2018-07-05T06:59:32.574Z,58.00
2018-07-05T07:02:12.591Z,57.60
2018-07-05T07:04:52.490Z,58.00
2018-07-05T07:07:32.485Z,57.50
2018-07-05T07:10:12.303Z,57.50
2018-07-05T07:12:52.122Z,57.00
2018-07-05T07:15:32.088Z,57.70
2018-07-05T07:18:12.306Z,58.10
2018-07-05T07:20:52.145Z,57.70
2018-07-05T07:23:31.861Z,58.00
2018-07-05T07:26:11.840Z,57.80
2018-07-05T07:28:51.581Z,57.40
2018-07-05T07:31:31.623Z,57.80
2018-07-05T07:34:11.497Z,57.80
2018-07-05T07:36:51.664Z,57.50
2018-07-05T07:39:31.386Z,56.60
2018-07-05T07:41:58.782Z,57.10
2018-07-05T07:44:26.458Z,57.80
2018-07-05T07:46:53.835Z,57.60
2018-07-05T07:49:21.156Z,57.80
2018-07-05T07:51:48.786Z,58.00
2018-07-05T07:54:16.173Z,57.70
2018-07-05T07:56:43.666Z,58.00
2018-07-05T07:59:11.221Z,57.90
2018-07-05T08:01:39.081Z,57.70
2018-07-05T08:04:06.517Z,57.90
2018-07-05T08:06:33.960Z,58.30
2018-07-05T08:11:29.294Z,58.70
2018-07-05T08:13:57.829Z,59.00
2018-07-05T08:16:27.787Z,58.90
2018-07-05T08:21:27.398Z,58.80
2018-07-05T08:23:55.157Z,58.90
2018-07-05T08:26:22.821Z,63.50
2018-07-05T08:28:50.217Z,59.30
2018-07-05T08:31:17.655Z,58.80
2018-07-05T08:33:45.528Z,59.30
2018-07-05T08:36:13.310Z,58.50
2018-07-05T08:38:41.916Z,59.40
2018-07-05T08:41:11.251Z,59.60
2018-07-05T08:43:39.931Z,58.70
2018-07-05T08:46:08.088Z,58.90
2018-07-05T08:48:35.562Z,59.00
2018-07-05T08:51:02.926Z,58.20
2018-07-05T08:53:30.771Z,57.10
2018-07-05T08:55:58.429Z,57.50
2018-07-05T08:58:25.777Z,57.40
2018-07-05T09:00:53.266Z,57.30
2018-07-05T09:03:20.683Z,57.10
2018-07-05T09:05:47.994Z,57.10
2018-07-05T09:08:15.382Z,56.90
2018-07-05T09:10:42.734Z,57.20
2018-07-05T09:13:10.031Z,56.30
2018-07-05T09:15:37.486Z,56.60
2018-07-05T09:18:04.856Z,55.70
2018-07-05T09:20:32.429Z,54.80
2018-07-05T09:23:00.010Z,54.60
2018-07-05T09:25:28.851Z,54.30
2018-07-05T09:27:56.164Z,51.30
2018-07-05T09:30:23.854Z,52.50
2018-07-05T09:32:51.266Z,52.60
2018-07-05T09:35:18.737Z,52.60
2018-07-05T09:37:46.049Z,52.20
2018-07-05T09:40:13.479Z,52.00
2018-07-05T09:42:40.826Z,51.60
2018-07-05T09:45:08.464Z,49.60
2018-07-05T09:47:36.052Z,50.10
2018-07-05T09:50:04.045Z,50.30
2018-07-05T09:52:31.527Z,50.80
2018-07-05T09:54:59.598Z,50.50
2018-07-05T09:57:27.291Z,50.30
2018-07-05T09:59:54.914Z,50.90
2018-07-05T10:02:22.868Z,49.80
2018-07-05T10:04:50.760Z,50.30
2018-07-05T10:07:18.268Z,49.00
2018-07-05T10:09:45.920Z,49.00
2018-07-05T10:12:14.881Z,49.70
2018-07-05T10:14:43.639Z,49.00
2018-07-05T10:17:11.785Z,48.30
2018-07-05T10:19:39.187Z,48.60
2018-07-05T10:22:07.632Z,48.40
2018-07-05T10:24:35.424Z,48.10
2018-07-05T10:27:03.089Z,47.20
2018-07-05T10:29:43.430Z,45.80
2018-07-05T10:32:23.255Z,47.30
2018-07-05T10:34:51.064Z,46.00
2018-07-05T10:37:22.835Z,45.40
2018-07-05T10:40:03.244Z,45.00
2018-07-05T10:42:43.305Z,44.80
2018-07-05T10:45:23.172Z,45.90
2018-07-05T10:48:03.813Z,47.00
2018-07-05T10:50:43.505Z,47.10
2018-07-05T10:53:23.664Z,47.10
2018-07-05T10:56:03.818Z,47.10
2018-07-05T10:58:43.668Z,46.60
2018-07-05T11:01:23.946Z,46.00
2018-07-05T11:04:04.347Z,46.30
2018-07-05T11:06:44.387Z,45.90
2018-07-05T11:09:30.971Z,46.70
2018-07-05T11:12:11.017Z,46.70
2018-07-05T11:14:51.282Z,46.80
2018-07-05T11:17:31.795Z,47.90
2018-07-05T11:20:11.673Z,48.40
2018-07-05T11:22:51.292Z,47.60
2018-07-05T11:25:31.429Z,47.80
2018-07-05T11:28:11.520Z,48.30
2018-07-05T11:30:51.547Z,47.80
2018-07-05T11:33:31.473Z,47.50
2018-07-05T11:36:11.458Z,47.30
2018-07-05T11:38:51.920Z,48.20
2018-07-05T11:41:32.151Z,49.00
2018-07-05T11:44:12.193Z,49.30
2018-07-05T11:46:52.024Z,49.60
2018-07-05T11:49:32.735Z,48.80
2018-07-05T11:52:13.535Z,48.40
2018-07-05T11:54:54.088Z,48.20
2018-07-05T11:57:34.121Z,49.00
2018-07-05T12:00:14.521Z,49.40
2018-07-05T12:02:54.986Z,49.40
2018-07-05T12:05:35.867Z,49.20
2018-07-05T12:08:16.028Z,47.60
2018-07-05T12:10:55.681Z,47.50
2018-07-05T12:13:35.935Z,48.20
2018-07-05T12:16:16.120Z,48.00
2018-07-05T12:18:56.422Z,48.50
2018-07-05T12:21:36.283Z,49.20
2018-07-05T12:24:16.393Z,49.50
2018-07-05T12:26:56.316Z,50.00
2018-07-05T12:29:36.417Z,51.40
2018-07-05T12:32:16.163Z,52.40
2018-07-05T12:34:55.901Z,53.20
2018-07-05T12:37:36.100Z,52.50
2018-07-05T12:40:16.208Z,52.80
2018-07-05T12:42:56.143Z,52.60
2018-07-05T12:45:36.439Z,53.40
2018-07-05T12:48:16.323Z,54.30
2018-07-05T12:50:56.386Z,55.00
2018-07-05T12:53:36.433Z,55.60
2018-07-05T12:56:16.422Z,55.70
2018-07-05T12:58:56.069Z,56.20
2018-07-05T13:01:36.450Z,56.20
2018-07-05T13:04:16.645Z,57.30
2018-07-05T13:06:56.856Z,57.90
2018-07-05T13:09:36.943Z,58.40
2018-07-05T13:12:17.631Z,57.70
2018-07-05T13:14:57.549Z,58.40
2018-07-05T13:17:37.176Z,59.00
2018-07-05T13:20:17.038Z,59.30
2018-07-05T13:22:56.757Z,59.70
2018-07-05T13:25:36.902Z,60.10
2018-07-05T13:28:17.174Z,60.10
2018-07-05T13:30:56.894Z,60.30
2018-07-05T13:33:36.947Z,60.00
2018-07-05T13:36:16.719Z,59.70
2018-07-05T13:38:58.319Z,58.40
2018-07-05T13:41:38.322Z,57.00
2018-07-05T13:44:18.234Z,56.70
2018-07-05T13:46:58.133Z,56.90
2018-07-05T13:49:38.381Z,56.10
2018-07-05T13:52:18.541Z,55.00
2018-07-05T13:54:58.044Z,54.60
2018-07-05T13:57:38.352Z,55.00
2018-07-05T14:00:18.185Z,54.30
2018-07-05T14:02:57.755Z,53.70
2018-07-05T14:05:37.491Z,53.40
2018-07-05T14:08:17.122Z,53.70
2018-07-05T14:10:57.371Z,54.40
2018-07-05T14:13:37.826Z,55.30
2018-07-05T14:16:18.482Z,55.70
2018-07-05T14:18:58.427Z,56.50
2018-07-05T14:21:38.410Z,56.80
2018-07-05T14:24:18.009Z,56.60
2018-07-05T14:26:58.100Z,56.80
2018-07-05T14:29:38.018Z,56.50
2018-07-05T14:32:20.221Z,56.10
2018-07-05T14:35:00.545Z,55.60
2018-07-05T14:37:42.157Z,55.30
2018-07-05T14:40:21.974Z,55.50
2018-07-05T14:43:01.521Z,55.70
2018-07-05T14:45:41.331Z,56.20
2018-07-05T14:48:21.523Z,56.70
2018-07-05T14:51:01.229Z,55.90
2018-07-05T14:53:40.986Z,56.00
2018-07-05T14:56:22.026Z,56.80
2018-07-05T14:59:01.640Z,57.10
2018-07-05T15:01:41.265Z,57.60
2018-07-05T15:04:21.143Z,57.40
2018-07-05T15:07:01.242Z,57.30
2018-07-05T15:09:40.866Z,57.50
2018-07-05T15:12:20.601Z,57.80
2018-07-05T15:15:00.233Z,58.30
2018-07-05T15:17:39.916Z,58.20
2018-07-05T15:20:19.904Z,58.40
2018-07-05T15:22:59.525Z,58.90
2018-07-05T15:25:39.195Z,58.90
2018-07-05T15:28:19.135Z,59.00
2018-07-05T15:30:58.917Z,59.40
2018-07-05T15:33:38.788Z,59.60
2018-07-05T15:36:18.475Z,59.90
2018-07-05T15:38:58.039Z,60.40
2018-07-05T15:44:11.583Z,61.00
2018-07-05T15:49:25.406Z,61.90
2018-07-05T15:52:05.376Z,61.00
2018-07-05T15:54:45.461Z,61.80
2018-07-05T15:57:25.216Z,61.50
2018-07-05T16:00:05.063Z,61.60
2018-07-05T16:02:44.804Z,61.90
2018-07-05T16:05:24.531Z,62.20
2018-07-05T16:08:04.511Z,62.30
2018-07-05T16:10:44.276Z,63.30
2018-07-05T16:13:24.206Z,62.90
2018-07-05T16:16:04.197Z,63.00
2018-07-05T16:18:44.133Z,63.60
2018-07-05T16:21:24.168Z,63.00
2018-07-05T16:24:04.238Z,62.70
2018-07-05T16:26:43.968Z,62.20
2018-07-05T16:29:23.805Z,62.50
2018-07-05T16:32:03.701Z,62.10
2018-07-05T16:34:43.654Z,62.40
2018-07-05T16:37:23.427Z,61.90
2018-07-05T16:40:03.407Z,61.90
2018-07-05T16:42:43.502Z,62.20
2018-07-05T16:45:23.674Z,62.90
2018-07-05T16:48:03.430Z,63.40
2018-07-05T16:50:43.619Z,63.90
2018-07-05T16:53:23.522Z,63.90
2018-07-05T16:56:03.369Z,62.30
2018-07-05T16:58:44.216Z,60.80
2018-07-05T17:01:24.160Z,60.40
2018-07-05T17:04:04.040Z,60.10
2018-07-05T17:06:43.750Z,59.90
2018-07-05T17:09:23.617Z,60.50
2018-07-05T17:12:03.530Z,60.50
2018-07-05T17:14:43.813Z,60.70
2018-07-05T17:17:23.770Z,60.20
2018-07-05T17:20:04.110Z,59.80
2018-07-05T17:22:44.149Z,59.80
2018-07-05T17:25:24.065Z,60.40
2018-07-05T17:28:03.979Z,59.50
2018-07-05T17:30:43.780Z,59.60
2018-07-05T17:33:23.751Z,59.70
2018-07-05T17:36:03.572Z,60.20
2018-07-05T17:38:43.538Z,60.20
2018-07-05T17:41:23.622Z,60.20
2018-07-05T17:44:03.481Z,60.20
2018-07-05T17:46:43.326Z,61.10
2018-07-05T17:49:23.054Z,61.00
2018-07-05T17:52:02.916Z,61.40
2018-07-05T17:54:42.746Z,61.50
2018-07-05T17:57:22.525Z,61.90
2018-07-05T18:00:02.514Z,61.90
2018-07-05T18:02:42.242Z,63.70
2018-07-05T18:05:21.869Z,62.50
2018-07-05T18:08:01.435Z,62.00
2018-07-05T18:10:42.961Z,61.50
2018-07-05T18:13:23.100Z,61.80
2018-07-05T18:16:03.873Z,62.10
2018-07-05T18:18:44.683Z,62.00
2018-07-05T18:21:25.988Z,62.20
2018-07-05T18:24:07.085Z,62.30
2018-07-05T18:26:47.701Z,62.90
2018-07-05T18:29:28.727Z,63.50
2018-07-05T18:32:09.800Z,64.00
2018-07-05T18:34:49.538Z,64.40
2018-07-05T18:37:29.125Z,64.80
2018-07-05T18:40:08.878Z,65.00
2018-07-05T18:42:48.874Z,65.30
2018-07-05T18:45:28.804Z,65.70
2018-07-05T18:48:08.548Z,66.30
2018-07-05T18:50:49.960Z,66.60
2018-07-05T18:53:30.823Z,66.70
2018-07-05T18:56:12.268Z,66.60
2018-07-05T18:58:54.021Z,66.80
2018-07-05T19:01:34.688Z,66.60
2018-07-05T19:04:15.791Z,66.20
2018-07-05T19:06:55.743Z,66.10
2018-07-05T19:09:37.286Z,66.80
2018-07-05T19:12:16.830Z,66.30
2018-07-05T19:14:56.641Z,65.80
2018-07-05T19:17:37.940Z,66.00
2018-07-05T19:20:18.531Z,66.30
2018-07-05T19:22:58.263Z,66.50
2018-07-05T19:25:38.056Z,66.60
2018-07-05T19:28:18.085Z,66.50
2018-07-05T19:30:57.803Z,66.60
2018-07-05T19:33:37.470Z,66.50
2018-07-05T19:36:17.340Z,66.20
2018-07-05T19:38:56.926Z,66.00
2018-07-05T19:41:36.623Z,65.00
2018-07-05T19:44:16.815Z,64.30
2018-07-05T19:46:56.443Z,64.60
2018-07-05T19:49:37.330Z,64.00
2018-07-05T19:52:18.402Z,64.10
2018-07-05T19:54:58.368Z,64.50
2018-07-05T19:57:38.197Z,64.50
2018-07-05T20:00:18.202Z,66.10
2018-07-05T20:02:58.256Z,71.20
2018-07-05T20:05:38.123Z,77.60
2018-07-05T20:08:17.723Z,82.40
2018-07-05T20:10:58.919Z,85.80
2018-07-05T20:13:40.253Z,87.70
2018-07-05T20:16:20.768Z,89.90
2018-07-05T20:19:00.610Z,90.60
2018-07-05T20:21:40.431Z,91.20
2018-07-05T20:24:20.312Z,91.30
2018-07-05T20:27:00.040Z,91.70
2018-07-05T20:29:40.450Z,92.00
2018-07-05T20:32:20.787Z,92.20
2018-07-05T20:35:01.049Z,92.40
2018-07-05T20:37:42.110Z,92.50
2018-07-05T20:40:24.444Z,92.10
2018-07-05T20:43:04.161Z,92.70
2018-07-05T20:45:44.043Z,92.50
2018-07-05T20:48:23.821Z,92.50
2018-07-05T20:51:03.628Z,92.40
2018-07-05T20:53:43.326Z,92.20
2018-07-05T20:56:22.874Z,92.40
2018-07-05T20:59:04.403Z,92.10
2018-07-05T21:01:45.979Z,91.60
2018-07-05T21:04:27.109Z,91.70
2018-07-05T21:07:08.536Z,91.50
2018-07-05T21:09:50.043Z,92.10
2018-07-05T21:12:31.544Z,91.90
2018-07-05T21:15:12.978Z,92.00
2018-07-05T21:17:54.274Z,92.00
2018-07-05T21:20:35.199Z,92.00
2018-07-05T21:23:19.390Z,92.20
2018-07-05T21:26:01.051Z,92.00
2018-07-05T21:28:41.600Z,91.90
2018-07-05T21:31:21.842Z,92.10
2018-07-05T21:34:02.747Z,91.90
2018-07-05T21:36:43.401Z,92.10
2018-07-05T21:39:24.390Z,92.50
2018-07-05T21:42:10.713Z,92.50
2018-07-05T21:44:51.809Z,92.70
2018-07-05T21:47:33.623Z,92.50
2018-07-05T21:50:14.494Z,92.50
2018-07-05T21:52:54.452Z,91.60
2018-07-05T21:55:34.277Z,91.90
2018-07-05T21:58:14.073Z,91.60
2018-07-05T22:00:53.813Z,91.60
2018-07-05T22:03:33.579Z,91.60
2018-07-05T22:06:13.257Z,91.80
2018-07-05T22:08:53.362Z,91.80
2018-07-05T22:11:33.041Z,91.50
2018-07-05T22:14:12.978Z,91.80
2018-07-05T22:16:58.066Z,91.50
2018-07-05T22:19:43.406Z,91.60
2018-07-05T22:22:31.717Z,91.80
2018-07-05T22:25:17.313Z,92.00
2018-07-05T22:28:02.714Z,92.00
2018-07-05T22:30:48.089Z,92.00
2018-07-05T22:33:27.819Z,91.90
2018-07-05T22:36:07.588Z,91.90
2018-07-05T22:38:47.407Z,91.90
2018-07-05T22:41:27.188Z,91.90
2018-07-05T22:44:07.074Z,92.00
2018-07-05T22:46:46.763Z,92.20
2018-07-05T22:49:26.265Z,92.20
2018-07-05T22:52:05.968Z,92.20
2018-07-05T22:54:45.693Z,92.30
2018-07-05T22:57:25.604Z,92.20
2018-07-05T23:00:05.673Z,92.20
2018-07-05T23:02:45.570Z,92.20
2018-07-05T23:05:25.376Z,92.40
2018-07-05T23:08:05.284Z,92.40
2018-07-05T23:10:45.045Z,92.50
2018-07-05T23:13:24.716Z,92.70
2018-07-05T23:16:04.654Z,92.80
2018-07-05T23:18:44.971Z,93.00
2018-07-05T23:21:25.045Z,93.00
2018-07-05T23:24:05.557Z,93.20
2018-07-05T23:26:45.583Z,93.30
2018-07-05T23:29:25.885Z,93.80
2018-07-05T23:32:07.650Z,93.30
2018-07-05T23:34:47.726Z,93.30
2018-07-05T23:37:29.939Z,93.30
2018-07-05T23:40:10.032Z,93.50
2018-07-05T23:42:49.803Z,93.60
2018-07-05T23:45:29.674Z,93.40
2018-07-05T23:48:09.739Z,93.30
2018-07-05T23:50:49.743Z,93.80
2018-07-05T23:53:29.588Z,94.10
2018-07-05T23:56:09.514Z,93.70
2018-07-05T23:58:49.547Z,93.70
